Terminal Aerodrome Forecast
Issued by NWS

Home | Current Version | Previous Version | Graphics & Text | Print | Product List | Glossary On
Versions: 1 2 3 4 5 6 7 8 9 10 11 12 13 14 15 16 17 18 19 20 21 22 23 24 25 26 27 28 29 30 31 32
000
FTUS43 KABR 081540 AAA
TAFPIR
TAF AMD
KPIR 081540Z 0816/0912 32020KT P6SM OVC060
      TEMPO 0816/0818 SCT060
     FM081800 31015KT P6SM BKN060
     FM082100 31012KT P6SM SCT060
     FM090000 31007KT P6SM SCT110
     FM090400 VRB03KT P6SM SCT120
     FM091000 06004KT P6SM BKN090=

USA.gov is the U.S. government's official web portal to all federal, state and local government web resources and services.